Terminal Aerodrome Forecast
Issued by NWS Topeka, KS

Home | Current Version | Previous Version | Graphics & Text | Print | Product List | Glossary On
Versions: 1 2 3 4 5 6 7 8 9 10 11 12 13 14 15 16 17 18
676
FTUS43 KTOP 160515 AAC
TAFTOP
TAF AMD
KTOP 160515Z 1605/1624 34017G27KT P6SM BKN018 OVC100
     FM160800 34020G28KT P6SM SCT025 OVC100
     FM161300 35013KT P6SM SCT200
     FM161700 36008KT P6SM FEW200=

USA.gov is the U.S. government's official web portal to all federal, state and local government web resources and services.